Time;durP1;ratioP1;P1;durP2;ratioP2;P2;SDS_P1;SDS_P2;PMS_P1;PMS_P2;Temp;Humidity;BMP_temperature;BMP_pressure;BME280_temperature;BME280_humidity;BME280_pressure;Samples;Min_cycle;Max_cycle;Signal;HPM_P1;HPM_P2
2022/10/29 00:00:59;;;;;;;0.60;0.57;;;15.10;95.00;;;;;;5043784;28;20029;-71
2022/10/29 00:03:25;;;;;;;0.00;0.00;;;15.20;94.30;;;;;;5079151;28;20027;-71
2022/10/29 00:06:10;;;;;;;0.43;0.05;;;15.20;93.70;;;;;;5079164;28;20103;-71
2022/10/29 00:08:45;;;;;;;0.10;0.10;;;15.10;93.40;;;;;;5079009;28;20395;-71
2022/10/29 00:11:22;;;;;;;0.00;0.00;;;15.10;94.10;;;;;;5077182;28;20502;-71
2022/10/29 00:13:53;;;;;;;0.10;0.10;;;15.10;95.10;;;;;;5077754;28;20564;-71
2022/10/29 00:16:34;;;;;;;0.38;0.22;;;15.00;95.40;;;;;;5050370;28;20021;-71
2022/10/29 00:19:09;;;;;;;0.10;0.10;;;15.00;94.90;;;;;;5068769;28;20025;-71
2022/10/29 00:21:45;;;;;;;0.13;0.10;;;15.10;93.20;;;;;;5078523;28;20082;-71
2022/10/29 00:24:10;;;;;;;0.00;0.00;;;15.30;91.10;;;;;;5078847;28;20355;-71
2022/10/29 00:26:45;;;;;;;2.67;0.10;;;15.30;90.70;;;;;;5073977;28;20074;-71
2022/10/29 00:29:20;;;;;;;0.33;0.20;;;15.40;90.60;;;;;;5038538;28;20025;-71
2022/10/29 00:35:08;;;;;;;0.05;0.05;;;15.30;90.00;;;;;;5059052;28;20431;-71
2022/10/29 00:37:43;;;;;;;0.10;0.10;;;15.20;91.40;;;;;;5058413;28;20074;-71
2022/10/29 00:41:08;;;;;;;0.82;0.52;;;15.20;91.80;;;;;;5046841;28;20052;-70
2022/10/29 00:48:08;;;;;;;0.05;0.05;;;15.20;90.10;;;;;;5038598;28;20051;-69
2022/10/29 00:51:33;;;;;;;0.00;0.00;;;15.20;89.40;;;;;;5037859;28;20112;-69
2022/10/29 00:54:03;;;;;;;0.00;0.00;;;15.20;89.90;;;;;;5038189;28;20109;-69
2022/10/29 00:57:01;;;;;;;0.08;0.08;;;15.10;91.20;;;;;;5038133;28;20026;-69
2022/10/29 00:59:36;;;;;;;0.00;0.00;;;15.10;90.70;;;;;;5020695;28;20033;-69
2022/10/29 01:02:11;;;;;;;0.00;0.00;;;15.10;88.80;;;;;;5037901;28;20029;-69
2022/10/29 01:04:38;;;;;;;0.47;0.20;;;15.40;87.40;;;;;;5038068;28;20025;-69
2022/10/29 01:07:17;;;;;;;0.30;0.30;;;15.60;87.70;;;;;;5037921;28;20025;-69
2022/10/29 01:09:51;;;;;;;6.03;1.75;;;15.70;87.90;;;;;;5037945;28;20036;-69
2022/10/29 01:13:04;;;;;;;0.05;0.00;;;15.70;87.70;;;;;;5037735;28;20101;-69
2022/10/29 01:16:06;;;;;;;0.20;0.20;;;15.60;88.00;;;;;;5044923;28;20026;-69
2022/10/29 01:19:32;;;;;;;0.77;0.40;;;15.40;88.20;;;;;;5057548;28;20025;-69
2022/10/29 01:26:15;;;;;;;0.00;0.00;;;15.20;89.10;;;;;;4961323;28;20038;-69
2022/10/29 01:28:59;;;;;;;0.10;0.10;;;15.10;90.60;;;;;;4957807;29;20035;-69
2022/10/29 01:32:14;;;;;;;0.65;0.52;;;15.10;90.80;;;;;;4957523;29;20035;-69
2022/10/29 01:35:17;;;;;;;0.05;0.05;;;15.10;90.60;;;;;;4929303;29;20105;-69
2022/10/29 01:38:33;;;;;;;0.00;0.00;;;15.10;89.50;;;;;;4957548;29;20032;-69
2022/10/29 01:41:25;;;;;;;0.05;0.00;;;15.10;89.90;;;;;;4957577;28;20059;-69
2022/10/29 01:44:32;;;;;;;0.20;0.08;;;15.00;89.80;;;;;;4970359;28;20124;-69
2022/10/29 01:47:27;;;;;;;0.13;0.13;;;15.10;90.40;;;;;;4939689;28;20040;-70
2022/10/29 01:50:06;;;;;;;0.00;0.00;;;15.10;90.50;;;;;;4973697;28;20127;-69
2022/10/29 01:52:42;;;;;;;3.28;0.50;;;15.10;90.30;;;;;;4956938;28;20034;-69
2022/10/29 01:58:41;;;;;;;0.10;0.10;;;15.10;90.40;;;;;;4976849;28;20102;-69
2022/10/29 02:02:02;;;;;;;0.10;0.10;;;15.00;91.40;;;;;;4976283;28;20043;-69
2022/10/29 02:05:08;;;;;;;0.10;0.10;;;15.00;92.30;;;;;;4976413;28;20030;-69
2022/10/29 02:08:33;;;;;;;0.47;0.40;;;14.90;91.60;;;;;;4970837;28;20126;-69
2022/10/29 02:11:58;;;;;;;0.17;0.10;;;15.00;89.90;;;;;;5039212;28;20028;-69
2022/10/29 02:18:56;;;;;;;0.17;0.10;;;15.20;87.90;;;;;;5036989;28;20417;-69
2022/10/29 02:22:21;;;;;;;0.00;0.00;;;15.10;88.70;;;;;;5036414;28;20037;-70
2022/10/29 02:24:47;;;;;;;0.30;0.30;;;15.00;89.30;;;;;;5036710;28;20060;-70
2022/10/29 02:27:31;;;;;;;0.20;0.10;;;15.00;89.60;;;;;;5035813;28;20057;-70
2022/10/29 02:30:06;;;;;;;0.57;0.20;;;15.00;89.80;;;;;;5035151;28;20084;-69
2022/10/29 02:32:41;;;;;;;2.25;0.17;;;14.90;90.20;;;;;;5036259;28;20029;-69
2022/10/29 02:35:07;;;;;;;0.47;0.30;;;14.80;91.00;;;;;;5036635;28;20022;-70
2022/10/29 02:37:51;;;;;;;0.05;0.03;;;14.80;91.00;;;;;;5036601;28;20022;-69
2022/10/29 02:40:26;;;;;;;0.10;0.10;;;14.80;91.40;;;;;;5029368;28;20040;-69
2022/10/29 02:43:01;;;;;;;0.00;0.00;;;14.80;92.40;;;;;;5059786;28;20434;-70
2022/10/29 02:45:27;;;;;;;0.60;0.43;;;14.80;92.60;;;;;;5067059;28;20039;-69
2022/10/29 02:48:11;;;;;;;0.90;0.50;;;14.80;92.30;;;;;;5038755;28;20022;-69
2022/10/29 02:50:46;;;;;;;0.95;0.85;;;14.90;93.40;;;;;;5073094;28;20513;-71
2022/10/29 02:53:49;;;;;;;0.10;0.10;;;14.90;94.70;;;;;;5079849;28;20098;-71
2022/10/29 02:56:24;;;;;;;0.28;0.20;;;14.90;95.40;;;;;;5080285;28;20024;-70
2022/10/29 02:58:59;;;;;;;0.40;0.28;;;14.80;94.30;;;;;;5080530;28;20112;-71
2022/10/29 03:01:34;;;;;;;0.35;0.35;;;14.80;93.40;;;;;;5080249;28;20048;-69
2022/10/29 03:04:00;;;;;;;0.30;0.10;;;14.80;92.10;;;;;;5080348;28;20021;-69
2022/10/29 03:10:12;;;;;;;0.00;0.00;;;14.80;91.80;;;;;;5080544;28;20054;-68
2022/10/29 03:12:47;;;;;;;0.00;0.00;;;14.80;91.90;;;;;;5079495;28;20518;-70
2022/10/29 03:15:13;;;;;;;0.28;0.20;;;14.80;91.60;;;;;;5072338;28;20016;-68
2022/10/29 03:17:59;;;;;;;1.35;0.40;;;14.80;91.80;;;;;;5059532;28;20025;-68
2022/10/29 03:20:33;;;;;;;0.10;0.03;;;14.70;91.90;;;;;;5059846;28;20044;-71
2022/10/29 03:26:21;;;;;;;0.00;0.00;;;14.80;90.00;;;;;;5060328;28;20462;-70
2022/10/29 03:28:56;;;;;;;0.00;0.00;;;14.90;88.40;;;;;;5059380;28;20047;-71
2022/10/29 03:31:31;;;;;;;0.10;0.10;;;15.10;87.80;;;;;;5059309;28;20419;-70
2022/10/29 03:33:56;;;;;;;0.15;0.10;;;15.30;87.00;;;;;;5059631;28;20107;-70
2022/10/29 03:36:31;;;;;;;0.05;0.00;;;15.30;87.10;;;;;;5059660;28;20100;-70
2022/10/29 03:39:06;;;;;;;0.33;0.27;;;15.30;87.60;;;;;;5059781;28;20021;-70
2022/10/29 03:41:42;;;;;;;0.17;0.10;;;15.30;87.80;;;;;;5059199;28;20032;-69
2022/10/29 03:44:08;;;;;;;;;;;15.20;88.40;;;;;;5059973;28;20305;-69
2022/10/29 03:46:52;;;;;;;0.10;0.10;;;15.20;88.50;;;;;;5059386;28;19909;-69
2022/10/29 03:49:27;;;;;;;0.10;0.10;;;15.00;89.00;;;;;;5041861;28;20102;-69
2022/10/29 03:55:15;;;;;;;0.50;0.30;;;14.90;88.90;;;;;;5059763;28;20040;-69
2022/10/29 03:57:50;;;;;;;0.00;0.00;;;14.90;88.80;;;;;;5059192;28;20025;-69
2022/10/29 04:00:24;;;;;;;0.00;0.00;;;15.00;89.80;;;;;;5059118;28;20029;-69
2022/10/29 04:06:14;;;;;;;0.10;0.10;;;15.00;89.70;;;;;;5059126;28;20020;-69
2022/10/29 04:08:48;;;;;;;0.17;0.13;;;15.00;89.40;;;;;;5058997;28;20419;-70
2022/10/29 04:11:23;;;;;;;0.45;0.35;;;14.90;89.50;;;;;;5058967;28;20021;-69
2022/10/29 04:13:52;;;;;;;0.55;0.20;;;14.90;89.60;;;;;;5041226;28;20029;-69
2022/10/29 04:16:32;;;;;;;0.00;0.00;;;14.80;89.90;;;;;;5058790;28;20025;-70
2022/10/29 04:19:07;;;;;;;0.10;0.10;;;14.80;90.50;;;;;;5041158;28;20028;-69
2022/10/29 04:21:43;;;;;;;0.60;0.33;;;14.70;91.00;;;;;;5041116;28;20025;-69
2022/10/29 04:24:09;;;;;;;0.30;0.28;;;14.70;91.00;;;;;;5058827;28;20155;-69
2022/10/29 04:26:53;;;;;;;0.00;0.00;;;14.70;91.10;;;;;;5058897;28;20458;-69
2022/10/29 04:29:28;;;;;;;0.00;0.00;;;14.60;91.40;;;;;;5058771;28;20021;-69
2022/10/29 04:35:16;;;;;;;0.43;0.43;;;14.40;92.50;;;;;;5059079;28;20132;-69
2022/10/29 04:37:50;;;;;;;0.20;0.15;;;14.50;92.90;;;;;;5058298;28;20096;-69
2022/10/29 04:41:17;;;;;;;1.85;0.20;;;14.40;93.90;;;;;;5057985;28;20408;-69
2022/10/29 04:43:42;;;;;;;0.68;0.15;;;14.40;94.60;;;;;;5058387;28;20378;-69
2022/10/29 04:46:17;;;;;;;0.10;0.10;;;14.40;94.60;;;;;;5040758;28;20151;-69
2022/10/29 04:48:52;;;;;;;0.50;0.38;;;14.40;94.20;;;;;;5040720;28;20017;-69
2022/10/29 04:51:27;;;;;;;0.00;0.00;;;14.40;93.20;;;;;;5058339;28;20319;-69
2022/10/29 04:53:53;;;;;;;0.50;0.43;;;14.30;92.70;;;;;;5058240;28;20028;-69
2022/10/29 04:56:34;;;;;;;0.03;0.00;;;14.30;93.20;;;;;;5058138;28;20050;-69
2022/10/29 04:59:08;;;;;;;0.43;0.20;;;14.30;92.90;;;;;;5058148;28;20373;-69
2022/10/29 05:01:44;;;;;;;0.17;0.10;;;14.30;92.00;;;;;;5040551;28;20029;-70
2022/10/29 05:04:10;;;;;;;0.85;0.77;;;14.20;92.10;;;;;;5058131;28;20013;-70
2022/10/29 05:06:54;;;;;;;0.25;0.15;;;14.20;91.50;;;;;;5058007;28;20477;-70
2022/10/29 05:09:29;;;;;;;0.63;0.63;;;14.30;91.30;;;;;;5058020;28;20021;-70
2022/10/29 05:15:16;;;;;;;0.10;0.00;;;14.40;91.80;;;;;;5057369;28;20028;-71
2022/10/29 05:17:51;;;;;;;0.10;0.10;;;14.40;91.70;;;;;;5040417;28;20025;-71
2022/10/29 05:20:27;;;;;;;0.10;0.10;;;14.40;91.40;;;;;;5057746;28;20035;-71
2022/10/29 05:26:15;;;;;;;0.00;0.00;;;14.40;91.10;;;;;;5058016;28;20027;-70
2022/10/29 05:28:52;;;;;;;0.20;0.10;;;14.50;91.70;;;;;;5057607;28;20308;-71
2022/10/29 05:31:27;;;;;;;0.00;0.00;;;14.50;91.50;;;;;;5057466;28;20120;-70
2022/10/29 05:37:27;;;;;;;0.40;0.22;;;14.40;92.00;;;;;;5057424;28;20071;-71
2022/10/29 05:40:02;;;;;;;0.00;0.00;;;14.40;93.20;;;;;;5056902;28;20041;-71
2022/10/29 05:42:37;;;;;;;0.13;0.13;;;14.40;93.20;;;;;;5057055;28;20115;-70
2022/10/29 05:45:03;;;;;;;0.08;0.08;;;14.30;92.90;;;;;;5057258;28;20131;-70
2022/10/29 05:47:47;;;;;;;0.50;0.40;;;14.30;92.90;;;;;;5057156;28;20060;-71
2022/10/29 05:50:21;;;;;;;0.10;0.00;;;14.30;92.50;;;;;;5057216;28;20413;-71
2022/10/29 05:53:08;;;;;;;0.05;0.05;;;14.30;92.20;;;;;;5057110;28;20336;-70
2022/10/29 05:55:43;;;;;;;0.20;0.10;;;14.20;92.30;;;;;;5057085;28;20356;-70
2022/10/29 05:58:18;;;;;;;0.13;0.10;;;14.20;92.10;;;;;;5057079;28;20063;-71
2022/10/29 06:00:53;;;;;;;0.38;0.38;;;14.30;91.60;;;;;;5056923;28;20116;-71
2022/10/29 06:06:32;;;;;;;1.13;0.20;;;14.50;90.70;;;;;;5056972;28;19907;-71
2022/10/29 06:09:08;;;;;;;0.00;0.00;;;14.50;90.80;;;;;;5056873;28;20407;-71
2022/10/29 06:12:26;;;;;;;1.23;0.75;;;14.60;90.70;;;;;;5056730;28;20287;-70
2022/10/29 06:14:52;;;;;;;0.00;0.00;;;14.60;90.70;;;;;;5057374;28;20029;-70
2022/10/29 06:17:30;;;;;;;0.15;0.08;;;14.70;90.50;;;;;;5056762;28;20348;-71
2022/10/29 06:20:05;;;;;;;0.35;0.25;;;14.70;90.40;;;;;;5038892;28;20070;-71
2022/10/29 06:22:41;;;;;;;0.43;0.20;;;14.70;90.30;;;;;;5056381;28;20040;-71
2022/10/29 06:25:07;;;;;;;0.20;0.20;;;14.80;91.20;;;;;;5056596;28;20020;-70
2022/10/29 06:28:20;;;;;;;0.00;0.00;;;14.90;91.90;;;;;;5056549;28;20017;-71
2022/10/29 06:30:55;;;;;;;1.55;0.90;;;15.00;92.80;;;;;;4998548;28;20381;-71
2022/10/29 06:33:21;;;;;;;0.20;0.20;;;15.20;93.30;;;;;;5014964;28;20076;-71
2022/10/29 06:36:02;;;;;;;1.35;0.32;;;15.40;93.40;;;;;;5014990;28;20084;-71
2022/10/29 06:38:36;;;;;;;0.05;0.05;;;15.50;94.10;;;;;;5015027;28;20053;-71
2022/10/29 06:44:43;;;;;;;0.35;0.28;;;15.80;94.10;;;;;;5015365;28;20036;-71
2022/10/29 06:47:17;;;;;;;2.00;0.80;;;15.90;95.50;;;;;;5014746;28;20041;-71
2022/10/29 06:49:52;;;;;;;0.10;0.10;;;15.90;95.20;;;;;;5014930;28;20033;-70
2022/10/29 06:52:26;;;;;;;0.10;0.10;;;16.00;94.00;;;;;;5014768;28;20033;-71
2022/10/29 06:55:03;;;;;;;0.20;0.20;;;16.10;90.50;;;;;;5018108;28;20068;-71
2022/10/29 06:57:40;;;;;;;0.20;0.10;;;16.20;89.70;;;;;;5056208;28;20123;-70
2022/10/29 07:00:24;;;;;;;0.30;0.22;;;16.30;89.90;;;;;;5056285;28;20130;-71
2022/10/29 07:06:12;;;;;;;0.30;0.30;;;16.50;89.70;;;;;;5056568;28;20027;-71
2022/10/29 07:08:47;;;;;;;1.05;0.73;;;16.60;88.70;;;;;;5056220;28;20025;-71
2022/10/29 07:11:21;;;;;;;0.55;0.30;;;16.60;88.40;;;;;;5056215;28;20028;-71
2022/10/29 07:13:47;;;;;;;0.38;0.22;;;16.70;90.10;;;;;;5038498;28;20048;-71
2022/10/29 07:16:22;;;;;;;0.25;0.20;;;16.70;90.10;;;;;;5056028;28;20021;-71
2022/10/29 07:18:56;;;;;;;0.10;0.00;;;16.80;90.00;;;;;;5056279;28;20025;-71
2022/10/29 07:21:31;;;;;;;0.13;0.10;;;16.80;89.50;;;;;;5056043;28;20373;-71
2022/10/29 07:27:31;;;;;;;0.30;0.20;;;16.90;91.90;;;;;;5056229;28;20020;-71
2022/10/29 07:30:06;;;;;;;0.10;0.10;;;16.90;92.40;;;;;;5056050;28;20109;-71
2022/10/29 07:32:41;;;;;;;0.45;0.17;;;17.00;93.80;;;;;;5055921;28;20309;-71
2022/10/29 07:35:07;;;;;;;0.20;0.20;;;17.00;91.90;;;;;;5055890;28;20029;-71
2022/10/29 07:37:50;;;;;;;0.03;0.03;;;17.00;91.40;;;;;;5056425;28;20032;-70
2022/10/29 07:41:16;;;;;;;0.20;0.15;;;17.10;92.70;;;;;;5059602;28;20039;-71
2022/10/29 07:44:45;;;;;;;0.52;0.10;;;17.10;92.90;;;;;;5059644;28;20025;-71
2022/10/29 07:47:44;;;;;;;;;;;17.20;92.40;;;;;;5059974;28;20362;-71
2022/10/29 07:50:35;;;;;;;0.77;0.73;;;17.30;93.10;;;;;;5059689;28;19905;-71
2022/10/29 07:56:32;;;;;;;0.30;0.10;;;17.40;92.60;;;;;;5059384;28;20404;-71
2022/10/29 07:59:08;;;;;;;0.25;0.17;;;17.50;93.30;;;;;;5059276;28;20018;-71
2022/10/29 08:01:44;;;;;;;0.15;0.10;;;17.60;94.40;;;;;;5059153;28;20060;-71
2022/10/29 08:04:10;;;;;;;1.05;0.35;;;17.60;94.70;;;;;;5059118;28;20020;-71
2022/10/29 08:06:45;;;;;;;0.30;0.30;;;17.70;92.50;;;;;;5041437;28;20028;-71
2022/10/29 08:09:20;;;;;;;0.68;0.52;;;17.80;92.70;;;;;;5041453;28;20140;-71
2022/10/29 08:11:56;;;;;;;0.60;0.10;;;17.80;91.70;;;;;;5059085;28;20104;-71
2022/10/29 08:14:21;;;;;;;;;;;17.90;93.70;;;;;;5059405;28;20036;-71
2022/10/29 08:17:02;;;;;;;0.28;0.25;;;18.00;92.30;;;;;;5058667;28;19967;-71
2022/10/29 08:19:37;;;;;;;0.20;0.10;;;18.10;92.50;;;;;;5040627;28;20029;-70
2022/10/29 08:22:12;;;;;;;2.20;0.37;;;18.10;90.60;;;;;;5058628;28;20353;-69
2022/10/29 08:24:37;;;;;;;0.70;0.32;;;18.20;90.30;;;;;;5058421;28;20378;-69
2022/10/29 08:27:12;;;;;;;0.30;0.13;;;18.30;88.70;;;;;;5058772;28;20025;-70
2022/10/29 08:29:47;;;;;;;0.93;0.38;;;18.50;87.60;;;;;;5058524;28;20017;-71
2022/10/29 08:35:44;;;;;;;0.20;0.15;;;18.80;86.50;;;;;;5057588;28;20032;-69
2022/10/29 08:38:19;;;;;;;0.20;0.20;;;19.10;86.00;;;;;;5056722;28;20107;-70
2022/10/29 08:41:12;;;;;;;0.32;0.22;;;19.30;87.60;;;;;;5055637;28;20044;-68
2022/10/29 08:43:56;;;;;;;1.10;0.20;;;19.50;87.80;;;;;;5056269;28;20075;-69
2022/10/29 08:47:13;;;;;;;0.20;0.20;;;19.70;87.60;;;;;;5057099;28;20044;-69
2022/10/29 08:50:39;;;;;;;0.65;0.65;;;19.80;87.10;;;;;;5056240;28;20019;-69
2022/10/29 08:53:22;;;;;;;0.13;0.10;;;20.10;88.60;;;;;;5015417;28;20038;-69
2022/10/29 08:59:42;;;;;;;0.30;0.30;;;21.40;85.40;;;;;;5016361;28;20028;-70
2022/10/29 09:02:17;;;;;;;0.55;0.30;;;22.50;80.20;;;;;;5016475;28;20040;-69
2022/10/29 09:04:43;;;;;;;1.58;1.10;;;23.10;79.00;;;;;;5057312;28;20048;-70
2022/10/29 09:07:37;;;;;;;0.77;0.20;;;23.70;79.00;;;;;;5058084;28;20090;-69
2022/10/29 09:10:40;;;;;;;1.02;0.73;;;24.30;77.30;;;;;;5058117;28;20021;-69
2022/10/29 09:16:59;;;;;;;1.05;0.55;;;25.20;75.20;;;;;;5058145;28;20159;-69
2022/10/29 09:19:56;;;;;;;0.60;0.45;;;25.60;74.80;;;;;;5057813;28;20028;-69
2022/10/29 09:26:03;;;;;;;0.65;0.45;;;25.90;73.80;;;;;;5058072;28;20074;-70
2022/10/29 09:29:25;;;;;;;0.63;0.40;;;26.20;72.50;;;;;;5057676;28;20056;-70
2022/10/29 09:35:34;;;;;;;0.45;0.43;;;26.80;70.20;;;;;;5016260;28;20029;-70
2022/10/29 09:38:39;;;;;;;1.23;0.70;;;26.70;70.40;;;;;;5010642;28;20479;-71
2022/10/29 09:42:03;;;;;;;1.35;0.75;;;26.70;70.10;;;;;;5002055;28;20081;-71
2022/10/29 09:44:37;;;;;;;1.00;0.63;;;26.60;70.40;;;;;;5014538;28;20108;-71
2022/10/29 09:47:34;;;;;;;0.55;0.30;;;26.60;71.00;;;;;;5015837;28;20042;-70
2022/10/29 09:50:08;;;;;;;1.50;1.10;;;26.90;71.70;;;;;;5010310;28;20033;-71
2022/10/29 09:52:44;;;;;;;1.63;0.90;;;27.10;69.90;;;;;;5015505;28;20461;-71
2022/10/29 09:55:22;;;;;;;1.08;0.45;;;27.40;69.60;;;;;;5015736;28;20022;-71
2022/10/29 09:57:57;;;;;;;1.85;0.80;;;27.40;68.80;;;;;;5015497;28;20014;-71
2022/10/29 10:00:33;;;;;;;0.70;0.52;;;27.60;69.80;;;;;;4998723;28;20114;-71
2022/10/29 10:07:04;;;;;;;0.95;0.50;;;27.60;66.90;;;;;;5051079;28;20093;-71
2022/10/29 10:10:21;;;;;;;3.05;0.82;;;27.70;69.10;;;;;;5056971;28;20043;-71
2022/10/29 10:16:08;;;;;;;0.90;0.60;;;27.70;69.00;;;;;;5057102;28;20028;-70
2022/10/29 10:18:53;;;;;;;1.17;0.52;;;27.40;68.00;;;;;;5056747;28;20335;-71
2022/10/29 10:21:34;;;;;;;0.83;0.37;;;27.30;69.40;;;;;;5056441;28;20029;-71
2022/10/29 10:27:34;;;;;;;0.45;0.45;;;27.00;68.50;;;;;;5056800;28;20416;-71
2022/10/29 10:30:16;;;;;;;1.10;0.90;;;27.00;68.60;;;;;;5056428;28;20029;-71
2022/10/29 10:32:51;;;;;;;0.73;0.43;;;27.20;68.70;;;;;;5056421;28;20029;-71
2022/10/29 10:35:29;;;;;;;0.52;0.40;;;27.30;69.80;;;;;;5056656;28;20056;-71
2022/10/29 10:38:08;;;;;;;0.45;0.35;;;27.10;69.50;;;;;;5056547;28;20304;-71
2022/10/29 10:41:00;;;;;;;0.90;0.50;;;27.20;68.40;;;;;;5056301;28;20112;-71
2022/10/29 10:47:04;;;;;;;1.50;0.75;;;27.20;68.50;;;;;;5036726;28;20041;-71
2022/10/29 10:49:39;;;;;;;1.42;0.50;;;27.00;67.40;;;;;;5036448;28;20025;-71
2022/10/29 10:55:33;;;;;;;1.90;0.95;;;27.10;69.50;;;;;;5036512;28;19913;-71
2022/10/29 10:58:36;;;;;;;2.83;0.43;;;26.80;68.70;;;;;;5036336;28;20100;-71
2022/10/29 11:01:12;;;;;;;0.30;0.20;;;26.70;69.20;;;;;;5036215;28;20025;-71
2022/10/29 11:07:12;;;;;;;0.40;0.30;;;27.00;71.70;;;;;;5036956;28;20024;-70
2022/10/29 11:09:54;;;;;;;0.88;0.55;;;27.00;68.00;;;;;;5036185;28;20025;-71
2022/10/29 11:12:49;;;;;;;0.63;0.45;;;26.90;69.10;;;;;;5018853;28;20049;-71
2022/10/29 11:15:50;;;;;;;0.73;0.52;;;26.80;70.60;;;;;;5022608;28;20421;-71
2022/10/29 11:18:48;;;;;;;0.90;0.82;;;26.90;70.80;;;;;;5040134;28;20026;-71
2022/10/29 11:21:32;;;;;;;0.88;0.30;;;27.00;69.30;;;;;;5022467;28;20029;-71
2022/10/29 11:24:01;;;;;;;0.55;0.32;;;26.90;69.90;;;;;;5039971;28;20065;-71
2022/10/29 11:27:20;;;;;;;1.27;1.17;;;26.60;69.80;;;;;;5040010;28;20021;-70
2022/10/29 11:30:05;;;;;;;0.88;0.68;;;26.40;69.90;;;;;;5040072;28;20017;-71
2022/10/29 11:36:17;;;;;;;0.28;0.20;;;26.60;70.90;;;;;;5040202;28;20079;-71
2022/10/29 11:40:14;;;;;;;0.57;0.30;;;26.50;70.90;;;;;;5039801;28;20056;-71
2022/10/29 11:46:29;;;;;;;2.67;0.60;;;26.00;72.80;;;;;;4959943;29;20042;-71
2022/10/29 11:49:29;;;;;;;2.38;1.25;;;25.80;72.20;;;;;;4959590;29;20128;-71
2022/10/29 11:55:24;;;;;;;0.80;0.65;;;25.50;73.30;;;;;;4940577;29;20038;-71
2022/10/29 11:58:47;;;;;;;1.67;1.33;;;25.50;72.30;;;;;;4940289;29;20031;-71
2022/10/29 12:02:11;;;;;;;0.40;0.20;;;25.30;74.20;;;;;;4902296;29;20095;-71
2022/10/29 12:08:43;;;;;;;0.47;0.32;;;25.00;77.40;;;;;;4902175;29;20333;-71
2022/10/29 12:11:40;;;;;;;0.77;0.30;;;25.00;76.40;;;;;;4846314;29;20048;-71
2022/10/29 12:14:42;;;;;;;1.45;0.45;;;24.90;77.00;;;;;;4913206;29;20044;-71
2022/10/29 12:18:15;;;;;;;0.65;0.50;;;24.80;79.00;;;;;;5039122;28;20026;-70
2022/10/29 12:27:35;;;;;;;2.10;0.40;;;24.00;77.90;;;;;;4959176;29;20094;-70
2022/10/29 12:30:16;;;;;;;1.40;0.60;;;23.80;78.10;;;;;;4958959;29;20024;-71
2022/10/29 12:36:25;;;;;;;0.88;0.65;;;23.70;77.50;;;;;;4958822;29;20025;-70
2022/10/29 12:39:01;;;;;;;1.05;0.73;;;23.60;79.20;;;;;;4958683;29;20408;-70
2022/10/29 12:41:50;;;;;;;0.90;0.73;;;23.40;78.50;;;;;;4957989;28;20106;-70
2022/10/29 12:44:55;;;;;;;0.90;0.60;;;23.20;77.70;;;;;;4979461;28;20041;-70
2022/10/29 12:47:36;;;;;;;1.25;0.90;;;23.00;79.20;;;;;;5038446;28;20311;-70
2022/10/29 12:51:01;;;;;;;1.10;0.47;;;22.90;78.20;;;;;;5038493;28;20021;-70
2022/10/29 12:57:57;;;;;;;1.48;0.63;;;22.70;85.10;;;;;;5038744;28;20037;-70
2022/10/29 13:01:22;;;;;;;0.68;0.57;;;22.60;81.70;;;;;;5038385;28;20026;-70
2022/10/29 13:03:54;;;;;;;0.95;0.57;;;22.50;84.30;;;;;;5038184;28;20033;-70
2022/10/29 13:07:19;;;;;;;1.17;0.75;;;22.40;82.20;;;;;;5038059;28;20029;-70
2022/10/29 13:16:50;;;;;;;2.20;0.85;;;22.20;84.20;;;;;;4936305;29;20477;-70
2022/10/29 13:19:50;;;;;;;1.85;0.70;;;22.10;83.00;;;;;;4957962;29;20028;-70
2022/10/29 13:22:57;;;;;;;0.82;0.63;;;22.20;82.60;;;;;;4957768;29;20035;-70
2022/10/29 13:25:45;;;;;;;1.33;0.73;;;22.20;85.20;;;;;;4957786;29;20091;-70
2022/10/29 13:28:22;;;;;;;0.98;0.57;;;22.10;84.20;;;;;;4957849;29;20024;-70
2022/10/29 13:31:27;;;;;;;0.88;0.60;;;22.00;84.00;;;;;;4941638;29;20060;-70
2022/10/29 13:33:53;;;;;;;5.45;1.40;;;21.90;83.10;;;;;;4949070;29;20155;-70
2022/10/29 13:36:36;;;;;;;1.45;1.00;;;21.80;83.00;;;;;;4957021;28;20028;-70
2022/10/29 13:39:39;;;;;;;1.55;0.82;;;21.80;83.90;;;;;;4941802;29;20363;-70
2022/10/29 13:45:56;;;;;;;;;;;21.80;84.10;;;;;;4982036;28;20459;-70
2022/10/29 13:48:35;;;;;;;0.45;0.28;;;21.80;83.00;;;;;;5037458;28;20174;-70
2022/10/29 13:51:15;;;;;;;1.40;0.80;;;21.60;82.90;;;;;;5037243;28;20032;-70
2022/10/29 13:57:23;;;;;;;0.55;0.40;;;21.30;86.50;;;;;;5037484;28;20044;-70
2022/10/29 14:00:18;;;;;;;0.80;0.35;;;21.10;85.70;;;;;;5037210;28;20022;-70
2022/10/29 14:06:16;;;;;;;0.80;0.50;;;21.00;87.20;;;;;;5037359;28;20047;-70
2022/10/29 14:09:21;;;;;;;2.03;0.32;;;21.00;87.40;;;;;;5036925;28;20021;-70
2022/10/29 14:15:14;;;;;;;1.33;0.93;;;20.70;88.50;;;;;;5037272;28;20105;-70
2022/10/29 14:17:49;;;;;;;1.25;0.90;;;20.50;89.30;;;;;;5036969;28;20105;-70
2022/10/29 14:20:33;;;;;;;0.90;0.60;;;20.40;89.90;;;;;;5036898;28;20329;-70
2022/10/29 14:26:31;;;;;;;0.75;0.38;;;20.20;89.10;;;;;;5037058;28;20107;-70
2022/10/29 14:29:35;;;;;;;0.77;0.50;;;20.10;89.10;;;;;;5019197;28;20025;-70
2022/10/29 14:35:23;;;;;;;5.85;0.95;;;20.10;89.20;;;;;;5036997;28;20028;-70
2022/10/29 14:38:05;;;;;;;0.30;0.22;;;20.00;89.20;;;;;;5019005;28;20025;-70
2022/10/29 14:40:43;;;;;;;0.45;0.28;;;20.00;90.40;;;;;;5036552;28;20093;-70
2022/10/29 14:50:33;;;;;;;1.42;0.90;;;20.00;92.80;;;;;;5056669;28;20032;-70
2022/10/29 14:56:34;;;;;;;2.80;1.27;;;19.90;93.10;;;;;;5056298;28;20032;-70
2022/10/29 14:59:17;;;;;;;0.95;0.43;;;19.90;93.50;;;;;;5056267;28;20021;-70
2022/10/29 15:02:08;;;;;;;1.88;1.27;;;19.80;94.60;;;;;;5056241;28;20079;-70
2022/10/29 15:04:34;;;;;;;0.40;0.38;;;19.80;94.70;;;;;;5038630;28;20409;-70
2022/10/29 15:07:28;;;;;;;0.63;0.38;;;19.70;95.40;;;;;;5056222;28;20031;-70
2022/10/29 15:10:25;;;;;;;0.32;0.22;;;19.70;96.20;;;;;;5056169;28;20077;-70
2022/10/29 15:16:19;;;;;;;0.95;0.65;;;19.60;95.70;;;;;;5056397;28;20075;-70
2022/10/29 15:18:58;;;;;;;0.80;0.57;;;19.50;96.00;;;;;;5056165;28;20405;-70
2022/10/29 15:21:39;;;;;;;0.40;0.38;;;19.30;96.40;;;;;;5056025;28;20409;-69
2022/10/29 15:24:57;;;;;;;1.20;0.70;;;19.20;96.60;;;;;;5056165;28;20040;-70
2022/10/29 15:27:36;;;;;;;0.40;0.30;;;19.10;95.90;;;;;;5056039;28;20017;-69
2022/10/29 15:30:40;;;;;;;1.33;1.02;;;19.00;96.60;;;;;;5056006;28;20340;-69
2022/10/29 15:33:21;;;;;;;0.50;0.20;;;18.90;97.00;;;;;;5049492;28;20110;-69
2022/10/29 15:36:02;;;;;;;0.43;0.40;;;18.70;97.50;;;;;;5055876;28;20017;-71
2022/10/29 15:39:15;;;;;;;0.40;0.17;;;18.60;97.70;;;;;;5055964;28;20025;-71
2022/10/29 15:41:57;;;;;;;1.30;1.20;;;18.50;97.50;;;;;;5055743;28;20310;-71
2022/10/29 15:44:31;;;;;;;0.77;0.70;;;18.40;97.20;;;;;;5055776;28;20017;-70
2022/10/29 15:47:56;;;;;;;1.95;0.82;;;18.20;97.50;;;;;;5055361;28;20098;-70
2022/10/29 15:51:22;;;;;;;0.55;0.40;;;18.10;97.70;;;;;;5038147;28;20021;-70
2022/10/29 15:58:32;;;;;;;0.60;0.20;;;17.80;98.00;;;;;;5055901;28;20490;-71
2022/10/29 16:01:23;;;;;;;1.42;1.30;;;17.60;98.00;;;;;;5059240;28;20380;-71
2022/10/29 16:07:20;;;;;;;0.80;0.45;;;17.40;97.90;;;;;;5059494;28;20071;-70
2022/10/29 16:09:57;;;;;;;0.63;0.63;;;17.30;98.00;;;;;;5059235;28;20415;-71
2022/10/29 16:15:44;;;;;;;1.05;0.82;;;17.10;98.00;;;;;;5059303;28;20031;-72
2022/10/29 16:18:22;;;;;;;0.70;0.50;;;17.00;98.00;;;;;;5041412;28;20021;-72
2022/10/29 16:21:00;;;;;;;0.40;0.38;;;16.90;98.00;;;;;;5058846;28;20401;-71
2022/10/29 16:23:26;;;;;;;1.75;0.85;;;16.90;98.00;;;;;;5059368;28;20029;-70
2022/10/29 16:26:13;;;;;;;1.08;0.98;;;16.80;98.00;;;;;;5041144;28;20028;-70
2022/10/29 16:28:51;;;;;;;1.25;0.73;;;16.70;98.00;;;;;;5058852;28;20036;-70
2022/10/29 16:31:27;;;;;;;1.25;0.57;;;16.70;98.00;;;;;;5058675;28;20290;-70
2022/10/29 16:37:24;;;;;;;2.67;1.65;;;16.50;98.00;;;;;;5058888;28;20031;-71
2022/10/29 16:39:59;;;;;;;0.95;0.60;;;16.50;98.00;;;;;;5058617;28;20021;-70
2022/10/29 16:45:56;;;;;;;1.50;0.93;;;16.30;98.00;;;;;;5058542;28;20036;-70
2022/10/29 16:48:31;;;;;;;0.30;0.30;;;16.30;98.00;;;;;;5040830;28;20104;-70
2022/10/29 16:51:06;;;;;;;1.73;1.20;;;16.30;98.00;;;;;;5058378;28;20044;-70
2022/10/29 16:57:06;;;;;;;0.10;0.10;;;16.20;98.00;;;;;;5058351;28;20016;-70
2022/10/29 16:59:40;;;;;;;0.35;0.32;;;16.20;98.00;;;;;;5058210;28;20029;-70
2022/10/29 17:02:18;;;;;;;0.13;0.13;;;16.10;98.00;;;;;;5040408;28;20029;-70
2022/10/29 17:04:44;;;;;;;0.50;0.30;;;16.10;98.00;;;;;;5058103;28;20021;-70
2022/10/29 17:07:28;;;;;;;0.65;0.57;;;16.10;98.00;;;;;;5058100;28;20397;-70
2022/10/29 17:10:03;;;;;;;0.30;0.20;;;16.00;98.00;;;;;;5057222;28;20021;-70
2022/10/29 17:12:38;;;;;;;0.75;0.50;;;16.00;98.00;;;;;;5040019;28;20112;-69
2022/10/29 17:15:05;;;;;;;0.33;0.20;;;16.00;98.00;;;;;;5058022;28;20353;-70
2022/10/29 17:17:45;;;;;;;0.20;0.20;;;16.10;98.00;;;;;;5057901;28;20372;-70
2022/10/29 17:20:20;;;;;;;0.55;0.30;;;16.20;98.00;;;;;;5057927;28;20025;-70
2022/10/29 17:26:08;;;;;;;0.40;0.40;;;16.50;98.00;;;;;;5057991;28;20423;-70